createdAt,value
2023-05-21T00:01:24.022Z,3.80
2023-05-21T00:03:54.213Z,3.25
2023-05-21T00:06:23.325Z,4.22
2023-05-21T00:08:52.423Z,3.75
2023-05-21T00:11:21.072Z,4.18
2023-05-21T00:13:52.867Z,4.03
2023-05-21T00:16:21.288Z,4.03
2023-05-21T00:18:50.370Z,4.38
2023-05-21T00:21:27.584Z,4.50
2023-05-21T00:23:56.531Z,4.00
2023-05-21T00:26:25.192Z,4.22
2023-05-21T00:28:53.903Z,3.70
2023-05-21T00:31:22.814Z,3.90
2023-05-21T00:33:53.256Z,3.83
2023-05-21T00:36:23.844Z,4.05
2023-05-21T00:39:05.327Z,3.72
2023-05-21T00:41:35.446Z,4.43
2023-05-21T00:44:04.207Z,4.53
2023-05-21T00:46:32.783Z,4.32
2023-05-21T00:49:02.106Z,3.67
2023-05-21T00:51:34.082Z,4.53
2023-05-21T00:54:05.094Z,4.22
2023-05-21T00:56:34.187Z,4.47
2023-05-21T00:59:05.573Z,3.72
2023-05-21T01:01:39.886Z,4.78
2023-05-21T01:04:09.779Z,4.90
2023-05-21T01:06:40.804Z,4.95
2023-05-21T01:09:10.656Z,4.82
2023-05-21T01:11:42.827Z,3.55
2023-05-21T01:14:14.623Z,4.15
2023-05-21T01:16:50.970Z,4.22
2023-05-21T01:19:22.882Z,3.92
2023-05-21T01:22:00.486Z,4.15
2023-05-21T01:24:37.142Z,4.20
2023-05-21T01:27:10.353Z,4.70
2023-05-21T01:29:45.106Z,4.30
2023-05-21T01:32:24.953Z,4.82
2023-05-21T01:35:01.319Z,4.13
2023-05-21T01:37:36.106Z,3.55
2023-05-21T01:40:12.397Z,4.20
2023-05-21T01:42:43.738Z,3.55
2023-05-21T01:45:13.351Z,4.38
2023-05-21T01:47:43.071Z,4.50
2023-05-21T01:50:12.552Z,3.90
2023-05-21T01:52:43.049Z,3.90
2023-05-21T01:55:13.630Z,4.90
2023-05-21T01:57:41.997Z,4.57
2023-05-21T02:00:14.850Z,4.57
2023-05-21T02:02:43.497Z,4.75
2023-05-21T02:05:12.234Z,5.07
2023-05-21T02:07:41.038Z,4.80
2023-05-21T02:10:10.102Z,5.05
2023-05-21T02:12:43.198Z,4.57
2023-05-21T02:15:18.144Z,5.30
2023-05-21T02:17:51.527Z,4.78
2023-05-21T02:20:23.154Z,5.03
2023-05-21T02:22:51.971Z,4.95
2023-05-21T02:25:32.534Z,4.72
2023-05-21T02:28:02.759Z,4.60
2023-05-21T02:30:33.035Z,5.45
2023-05-21T02:33:07.314Z,5.65
2023-05-21T02:35:38.998Z,4.60
2023-05-21T02:38:09.493Z,4.57
2023-05-21T02:40:45.805Z,4.55
2023-05-21T02:43:24.066Z,5.57
2023-05-21T02:45:59.113Z,4.68
2023-05-21T02:48:35.447Z,5.03
2023-05-21T02:51:10.652Z,4.82
2023-05-21T02:53:43.592Z,5.35
2023-05-21T02:56:18.229Z,4.70
2023-05-21T02:58:50.086Z,5.47
2023-05-21T03:01:25.462Z,5.05
2023-05-21T03:03:55.956Z,4.40
2023-05-21T03:06:28.723Z,5.15
2023-05-21T03:09:01.324Z,4.68
2023-05-21T03:11:34.880Z,5.28
2023-05-21T03:14:07.077Z,4.72
2023-05-21T03:16:42.707Z,4.45
2023-05-21T03:19:17.239Z,4.82
2023-05-21T03:21:52.717Z,4.10
2023-05-21T03:24:22.724Z,3.85
2023-05-21T03:26:55.030Z,5.20
2023-05-21T03:29:29.933Z,4.93
2023-05-21T03:32:11.467Z,3.65
2023-05-21T03:34:47.002Z,4.75
2023-05-21T03:37:17.086Z,4.53
2023-05-21T03:39:46.868Z,5.80
2023-05-21T03:42:18.771Z,4.63
2023-05-21T03:44:49.089Z,4.85
2023-05-21T03:47:18.302Z,4.82
2023-05-21T03:49:50.766Z,4.63
2023-05-21T03:52:22.794Z,5.05
2023-05-21T03:54:55.421Z,4.88
2023-05-21T03:57:25.911Z,5.05
2023-05-21T04:00:03.361Z,4.88
2023-05-21T04:02:37.001Z,5.07
2023-05-21T04:05:07.328Z,4.95
2023-05-21T04:07:39.004Z,5.43
2023-05-21T04:10:12.631Z,5.20
2023-05-21T04:12:42.751Z,5.68
2023-05-21T04:15:15.467Z,4.53
2023-05-21T04:17:46.187Z,6.13
2023-05-21T04:20:28.226Z,5.43
2023-05-21T04:23:09.400Z,5.63
2023-05-21T04:25:51.425Z,6.57
2023-05-21T04:28:30.759Z,5.28
2023-05-21T04:31:03.752Z,5.65
2023-05-21T04:33:36.061Z,5.93
2023-05-21T04:36:11.307Z,5.57
2023-05-21T04:38:42.403Z,5.82
2023-05-21T04:41:15.288Z,5.40
2023-05-21T04:43:52.853Z,5.03
2023-05-21T04:46:27.513Z,6.20
2023-05-21T04:49:18.776Z,5.85
2023-05-21T04:52:02.248Z,4.65
2023-05-21T04:54:34.235Z,5.22
2023-05-21T04:57:03.622Z,5.18
2023-05-21T04:59:37.115Z,3.90
2023-05-21T05:02:10.191Z,4.80
2023-05-21T05:04:46.246Z,4.07
2023-05-21T05:07:23.838Z,4.35
2023-05-21T05:09:59.813Z,4.03
2023-05-21T05:12:37.673Z,4.10
2023-05-21T05:15:13.252Z,4.13
2023-05-21T05:17:49.757Z,4.05
2023-05-21T05:20:27.416Z,4.15
2023-05-21T05:23:03.289Z,3.38
2023-05-21T05:25:35.980Z,4.22
2023-05-21T05:28:14.999Z,3.72
2023-05-21T05:30:47.020Z,4.28
2023-05-21T05:33:27.297Z,3.47
2023-05-21T05:36:17.080Z,3.80
2023-05-21T05:38:53.574Z,3.50
2023-05-21T05:41:27.348Z,4.18
2023-05-21T05:43:58.956Z,3.58
2023-05-21T05:46:40.243Z,3.33
2023-05-21T05:49:20.132Z,3.75
2023-05-21T05:52:00.874Z,3.28
2023-05-21T05:54:35.679Z,3.10
2023-05-21T05:57:11.596Z,3.38
2023-05-21T06:00:00.367Z,2.67
2023-05-21T06:02:48.969Z,3.17
2023-05-21T06:05:29.024Z,3.15
2023-05-21T06:08:03.658Z,3.13
2023-05-21T06:10:50.407Z,2.90
2023-05-21T06:13:28.583Z,2.95
2023-05-21T06:16:11.864Z,3.10
2023-05-21T06:18:49.857Z,3.55
2023-05-21T06:21:30.599Z,2.90
2023-05-21T06:24:25.231Z,3.22
2023-05-21T06:27:02.672Z,2.85
2023-05-21T06:29:51.313Z,2.47
2023-05-21T06:32:25.890Z,2.95
2023-05-21T06:34:58.459Z,2.95
2023-05-21T06:37:39.327Z,2.38
2023-05-21T06:40:22.240Z,2.42
2023-05-21T06:43:06.932Z,2.65
2023-05-21T06:46:21.784Z,2.40
2023-05-21T06:49:17.030Z,2.13
2023-05-21T06:51:57.926Z,3.08
2023-05-21T06:55:20.366Z,2.45
2023-05-21T06:58:17.464Z,2.67
2023-05-21T07:01:11.154Z,2.35
2023-05-21T07:03:56.438Z,2.22
2023-05-21T07:07:13.503Z,2.95
2023-05-21T07:09:51.512Z,2.30
2023-05-21T07:13:03.828Z,1.83
2023-05-21T07:15:44.615Z,2.42
2023-05-21T07:18:35.761Z,2.08
2023-05-21T07:21:13.091Z,2.45
2023-05-21T07:23:46.572Z,2.05
2023-05-21T07:26:31.484Z,2.22
2023-05-21T07:29:14.368Z,1.70
2023-05-21T07:31:52.448Z,2.25
2023-05-21T07:34:26.773Z,2.45
2023-05-21T07:37:04.960Z,2.03
2023-05-21T07:40:22.802Z,2.53
2023-05-21T07:43:46.834Z,2.63
2023-05-21T07:46:25.069Z,2.38
2023-05-21T07:49:22.096Z,2.30
2023-05-21T07:52:14.395Z,1.98
2023-05-21T07:54:58.943Z,2.25
2023-05-21T07:57:37.278Z,2.25
2023-05-21T08:00:27.564Z,1.70
2023-05-21T08:03:00.424Z,2.33
2023-05-21T08:05:39.789Z,2.15
2023-05-21T08:08:14.774Z,1.80
2023-05-21T08:10:51.853Z,2.28
2023-05-21T08:13:28.893Z,2.08
2023-05-21T08:19:52.642Z,1.55
2023-05-21T08:22:36.282Z,1.83
2023-05-21T08:25:15.037Z,1.70
2023-05-21T08:27:55.363Z,1.35
2023-05-21T08:30:41.298Z,1.80
2023-05-21T08:36:44.006Z,1.55
2023-05-21T08:39:22.566Z,1.70
2023-05-21T08:42:10.865Z,1.65
2023-05-21T08:45:32.388Z,1.45
2023-05-21T08:48:05.596Z,1.40
2023-05-21T08:50:44.475Z,1.35
2023-05-21T08:53:37.437Z,0.90
2023-05-21T08:56:12.343Z,1.52
2023-05-21T08:59:09.383Z,1.58
2023-05-21T09:05:31.009Z,1.63
2023-05-21T09:08:15.155Z,1.15
2023-05-21T09:11:51.492Z,1.30
2023-05-21T09:14:51.111Z,1.52
2023-05-21T09:17:45.549Z,1.67
2023-05-21T09:20:49.761Z,1.42
2023-05-21T09:24:06.861Z,1.70
2023-05-21T09:26:46.146Z,1.33
2023-05-21T09:32:29.576Z,1.55
2023-05-21T09:35:16.285Z,1.60
2023-05-21T09:37:53.935Z,1.30
2023-05-21T09:41:01.654Z,1.40
2023-05-21T09:44:26.425Z,1.50
2023-05-21T09:47:09.199Z,1.60
2023-05-21T09:49:57.477Z,1.70
2023-05-21T09:53:17.050Z,1.20
2023-05-21T09:56:36.666Z,2.05
2023-05-21T09:59:11.403Z,1.40
2023-05-21T10:02:30.672Z,1.63
2023-05-21T10:05:05.800Z,1.50
2023-05-21T10:08:42.355Z,1.63
2023-05-21T10:14:59.070Z,1.65
2023-05-21T10:18:12.933Z,1.70
2023-05-21T10:21:16.863Z,1.73
2023-05-21T10:23:58.392Z,1.55
2023-05-21T10:26:55.550Z,1.50
2023-05-21T10:29:50.417Z,1.50
2023-05-21T10:32:34.602Z,1.30
2023-05-21T10:35:50.135Z,1.45
2023-05-21T10:39:10.006Z,1.42
2023-05-21T10:42:08.343Z,1.75
2023-05-21T10:44:56.349Z,1.30
2023-05-21T10:54:23.746Z,1.02
2023-05-21T10:55:42.816Z,1.27
2023-05-21T11:20:53.772Z,2.22
2023-05-21T11:23:34.153Z,2.05
2023-05-21T11:26:43.351Z,1.77
2023-05-21T11:29:23.209Z,2.78
2023-05-21T11:32:54.798Z,1.33
2023-05-21T11:35:39.446Z,1.80
2023-05-21T11:39:29.664Z,1.60
2023-05-21T11:43:03.167Z,1.20
2023-05-21T11:46:20.796Z,1.83
2023-05-21T11:49:29.001Z,1.58
2023-05-21T11:52:35.677Z,1.77
2023-05-21T11:55:52.508Z,2.00
2023-05-21T11:58:55.547Z,1.58
2023-05-21T12:02:34.114Z,2.33
2023-05-21T12:05:22.577Z,1.73
2023-05-21T12:07:58.646Z,1.80
2023-05-21T12:10:52.384Z,1.50
2023-05-21T12:13:58.001Z,1.98
2023-05-21T12:16:49.365Z,1.70
2023-05-21T12:19:28.915Z,1.48
2023-05-21T12:21:59.484Z,1.42
2023-05-21T12:24:47.545Z,1.55
2023-05-21T12:27:39.472Z,2.00
2023-05-21T12:30:18.033Z,1.25
2023-05-21T12:33:15.099Z,1.42
2023-05-21T12:36:26.982Z,1.10
2023-05-21T12:39:40.082Z,1.35
2023-05-21T12:42:38.461Z,1.50
2023-05-21T12:45:43.633Z,1.50
2023-05-21T12:48:20.002Z,1.48
2023-05-21T12:51:25.133Z,1.63
2023-05-21T12:54:27.939Z,1.73
2023-05-21T12:57:12.393Z,1.60
2023-05-21T12:59:57.371Z,2.20
2023-05-21T13:03:04.988Z,1.27
2023-05-21T13:05:38.384Z,1.55
2023-05-21T13:08:26.699Z,1.17
2023-05-21T13:11:27.171Z,1.50
2023-05-21T13:17:34.060Z,1.50
2023-05-21T13:20:39.498Z,1.45
2023-05-21T13:23:41.402Z,1.55
2023-05-21T13:26:39.981Z,1.73
2023-05-21T13:32:11.716Z,1.38
2023-05-21T13:34:50.844Z,1.27
2023-05-21T13:37:25.690Z,1.58
2023-05-21T13:42:51.014Z,1.40
2023-05-21T13:45:31.452Z,3.22
2023-05-21T13:51:22.417Z,2.10
2023-05-21T13:53:59.615Z,2.63
2023-05-21T13:56:27.994Z,2.20
2023-05-21T13:58:56.575Z,2.13
2023-05-21T14:01:25.032Z,1.55
2023-05-21T14:03:53.755Z,1.55
2023-05-21T14:06:23.380Z,2.00
2023-05-21T14:08:51.922Z,2.13
2023-05-21T14:11:20.291Z,1.65
2023-05-21T14:13:48.913Z,1.95
2023-05-21T14:16:18.272Z,1.70
2023-05-21T14:18:47.138Z,2.22
2023-05-21T14:21:15.533Z,1.27
2023-05-21T14:23:45.678Z,2.45
2023-05-21T14:26:13.963Z,1.63
2023-05-21T14:28:42.854Z,1.38
2023-05-21T14:31:11.259Z,1.95
2023-05-21T14:33:40.487Z,2.70
2023-05-21T14:36:08.884Z,2.30
2023-05-21T14:38:37.386Z,1.92
2023-05-21T14:41:07.450Z,2.47
2023-05-21T14:43:36.093Z,2.33
2023-05-21T14:46:04.624Z,2.08
2023-05-21T14:48:33.205Z,1.70
2023-05-21T14:51:01.525Z,1.92
2023-05-21T14:53:30.272Z,1.77
2023-05-21T14:55:58.721Z,2.22
2023-05-21T14:58:28.603Z,1.45
2023-05-21T15:00:56.880Z,1.88
2023-05-21T15:03:25.541Z,2.10
2023-05-21T15:05:54.075Z,1.73
2023-05-21T15:08:22.715Z,1.52
2023-05-21T15:10:51.031Z,1.85
2023-05-21T15:13:19.519Z,1.55
2023-05-21T15:15:49.153Z,1.48
2023-05-21T15:18:17.718Z,1.95
2023-05-21T15:20:46.194Z,2.53
2023-05-21T15:23:17.267Z,1.50
2023-05-21T15:25:45.946Z,1.58
2023-05-21T15:28:16.053Z,1.70
2023-05-21T15:30:44.441Z,1.80
2023-05-21T15:33:14.417Z,1.75
2023-05-21T15:35:43.122Z,1.35
2023-05-21T15:38:12.007Z,1.85
2023-05-21T15:40:41.396Z,1.67
2023-05-21T15:43:10.054Z,1.83
2023-05-21T15:45:39.145Z,1.63
2023-05-21T15:48:08.512Z,1.48
2023-05-21T15:50:38.219Z,1.65
2023-05-21T15:53:06.741Z,1.60
2023-05-21T15:55:35.533Z,1.55
2023-05-21T15:58:05.069Z,1.25
2023-05-21T16:00:33.442Z,1.67
2023-05-21T16:03:02.267Z,1.20
2023-05-21T16:05:30.712Z,1.40
2023-05-21T16:08:00.725Z,1.50
2023-05-21T16:10:29.000Z,1.52
2023-05-21T16:12:57.492Z,1.27
2023-05-21T16:15:25.697Z,1.67
2023-05-21T16:17:54.257Z,1.42
2023-05-21T16:20:22.546Z,1.50
2023-05-21T16:22:51.209Z,1.33
2023-05-21T16:25:21.113Z,1.40
2023-05-21T16:27:50.015Z,1.50
2023-05-21T16:30:18.811Z,1.52
2023-05-21T16:32:47.367Z,1.40
2023-05-21T16:35:15.764Z,1.77
2023-05-21T16:37:44.247Z,1.52
2023-05-21T16:40:13.492Z,1.38
2023-05-21T16:42:43.771Z,1.50
2023-05-21T16:45:19.416Z,1.52
2023-05-21T16:47:48.835Z,1.20
2023-05-21T16:50:17.453Z,0.95
2023-05-21T16:52:46.201Z,1.75
2023-05-21T16:55:14.488Z,1.30
2023-05-21T16:57:44.313Z,1.60
2023-05-21T17:00:13.564Z,1.52
2023-05-21T17:02:42.315Z,2.25
2023-05-21T17:05:10.922Z,1.77
2023-05-21T17:07:39.440Z,1.98
2023-05-21T17:10:08.833Z,2.08
2023-05-21T17:12:37.656Z,2.25
2023-05-21T17:15:08.738Z,1.85
2023-05-21T17:17:37.305Z,2.10
2023-05-21T17:20:06.254Z,2.13
2023-05-21T17:22:34.741Z,2.25
2023-05-21T17:25:03.106Z,1.60
2023-05-21T17:27:32.425Z,2.00
2023-05-21T17:30:00.606Z,1.98
2023-05-21T17:32:30.589Z,1.58
2023-05-21T17:34:58.955Z,2.15
2023-05-21T17:37:27.488Z,1.77
2023-05-21T17:39:57.639Z,1.90
2023-05-21T17:42:26.183Z,1.75
2023-05-21T17:44:55.009Z,1.85
2023-05-21T17:47:23.590Z,1.73
2023-05-21T17:49:53.324Z,1.75
2023-05-21T17:52:21.879Z,1.50
2023-05-21T17:54:50.132Z,1.40
2023-05-21T17:57:20.281Z,1.77
2023-05-21T17:59:48.586Z,2.17
2023-05-21T18:02:17.099Z,2.20
2023-05-21T18:04:45.410Z,2.42
2023-05-21T18:07:16.091Z,1.88
2023-05-21T18:09:44.584Z,1.88
2023-05-21T18:12:13.077Z,2.10
2023-05-21T18:14:41.329Z,1.98
2023-05-21T18:17:09.965Z,2.13
2023-05-21T18:19:38.333Z,2.10
2023-05-21T18:22:06.847Z,1.85
2023-05-21T18:24:37.494Z,1.95
2023-05-21T18:27:06.234Z,1.90
2023-05-21T18:29:34.460Z,1.80
2023-05-21T18:32:04.168Z,1.88
2023-05-21T18:34:32.481Z,2.22
2023-05-21T18:37:01.049Z,1.50
2023-05-21T18:39:29.255Z,1.77
2023-05-21T18:42:12.311Z,1.98
2023-05-21T18:44:42.042Z,1.88
2023-05-21T18:47:11.509Z,1.92
2023-05-21T18:49:39.770Z,1.80
2023-05-21T18:52:08.505Z,1.95
2023-05-21T18:54:36.762Z,1.60
2023-05-21T18:57:07.221Z,1.92
2023-05-21T18:59:35.413Z,1.50
2023-05-21T19:02:05.594Z,1.70
2023-05-21T19:04:33.911Z,1.92
2023-05-21T19:07:02.981Z,1.67
2023-05-21T19:09:31.468Z,1.73
2023-05-21T19:12:01.087Z,2.03
2023-05-21T19:14:30.680Z,1.73
2023-05-21T19:16:59.178Z,1.67
2023-05-21T19:19:27.528Z,2.13
2023-05-21T19:21:56.112Z,1.90
2023-05-21T19:24:24.295Z,1.83
2023-05-21T19:26:52.817Z,1.80
2023-05-21T19:29:21.475Z,1.60
2023-05-21T19:31:54.988Z,2.22
2023-05-21T19:34:23.528Z,2.13
2023-05-21T19:36:53.423Z,1.55
2023-05-21T19:39:22.259Z,2.17
2023-05-21T19:41:51.618Z,1.70
2023-05-21T19:44:19.942Z,1.92
2023-05-21T19:46:49.869Z,2.60
2023-05-21T19:49:20.056Z,1.70
2023-05-21T19:51:49.620Z,2.28
2023-05-21T19:54:18.519Z,2.20
2023-05-21T19:56:47.034Z,1.95
2023-05-21T19:59:15.257Z,1.85
2023-05-21T20:01:44.331Z,1.95
2023-05-21T20:04:13.118Z,2.45
2023-05-21T20:06:43.198Z,2.38
2023-05-21T20:09:13.304Z,2.15
2023-05-21T20:11:43.157Z,2.65
2023-05-21T20:14:11.362Z,2.13
2023-05-21T20:16:39.988Z,2.83
2023-05-21T20:19:10.668Z,2.80
2023-05-21T20:21:39.728Z,2.38
2023-05-21T20:24:11.177Z,2.78
2023-05-21T20:26:39.979Z,3.03
2023-05-21T20:29:08.380Z,1.77
2023-05-21T20:31:37.043Z,2.10
2023-05-21T20:34:07.484Z,2.55
2023-05-21T20:36:36.286Z,2.88
2023-05-21T20:39:06.298Z,2.22
2023-05-21T20:41:37.859Z,2.33
2023-05-21T20:44:06.850Z,2.08
2023-05-21T20:46:38.552Z,2.70
2023-05-21T20:49:07.142Z,2.42
2023-05-21T20:51:35.845Z,2.63
2023-05-21T20:54:04.139Z,2.50
2023-05-21T20:56:42.036Z,2.22
2023-05-21T20:59:12.480Z,2.20
2023-05-21T21:01:41.587Z,2.25
2023-05-21T21:04:10.137Z,2.72
2023-05-21T21:06:40.503Z,2.40
2023-05-21T21:09:09.430Z,2.20
2023-05-21T21:11:38.016Z,2.15
2023-05-21T21:14:06.296Z,2.85
2023-05-21T21:16:36.453Z,2.33
2023-05-21T21:19:05.071Z,1.90
2023-05-21T21:21:34.169Z,2.30
2023-05-21T21:24:02.437Z,2.83
2023-05-21T21:26:31.091Z,2.30
2023-05-21T21:28:59.538Z,2.28
2023-05-21T21:31:28.082Z,2.45
2023-05-21T21:33:57.854Z,2.50
2023-05-21T21:36:28.770Z,2.65
2023-05-21T21:38:57.112Z,1.92
2023-05-21T21:41:25.962Z,2.13
2023-05-21T21:43:54.333Z,2.20
2023-05-21T21:46:22.860Z,2.20
2023-05-21T21:48:51.174Z,2.55
2023-05-21T21:51:23.366Z,2.53
2023-05-21T21:53:51.997Z,2.15
2023-05-21T21:56:20.844Z,2.90
2023-05-21T21:58:49.147Z,2.35
2023-05-21T22:01:17.333Z,1.98
2023-05-21T22:03:45.905Z,2.28
2023-05-21T22:06:14.253Z,2.17
2023-05-21T22:08:44.313Z,2.58
2023-05-21T22:11:12.616Z,1.98
2023-05-21T22:13:42.564Z,2.20
2023-05-21T22:16:11.987Z,2.15
2023-05-21T22:18:42.096Z,2.85
2023-05-21T22:21:11.032Z,2.25
2023-05-21T22:23:39.952Z,2.13
2023-05-21T22:26:10.535Z,2.47
2023-05-21T22:28:39.159Z,1.60
2023-05-21T22:31:07.548Z,2.72
2023-05-21T22:33:36.671Z,2.67
2023-05-21T22:36:05.396Z,2.05
2023-05-21T22:38:34.084Z,1.92
2023-05-21T22:41:02.429Z,2.45
2023-05-21T22:43:34.067Z,2.15
2023-05-21T22:46:02.952Z,2.08
2023-05-21T22:48:31.584Z,2.75
2023-05-21T22:51:01.677Z,1.77
2023-05-21T22:53:31.965Z,2.20
2023-05-21T22:56:00.685Z,2.70
2023-05-21T22:58:29.267Z,2.17
2023-05-21T23:00:59.123Z,2.35
2023-05-21T23:03:27.624Z,2.53
2023-05-21T23:05:55.930Z,2.47
2023-05-21T23:08:24.388Z,1.88
2023-05-21T23:10:52.581Z,2.47
2023-05-21T23:13:21.473Z,2.25
2023-05-21T23:15:50.780Z,1.95
2023-05-21T23:18:20.928Z,2.40
2023-05-21T23:20:49.316Z,2.67
2023-05-21T23:23:17.847Z,2.70
2023-05-21T23:25:46.737Z,2.20
2023-05-21T23:28:15.421Z,3.08
2023-05-21T23:30:43.694Z,2.17
2023-05-21T23:33:12.212Z,2.65
2023-05-21T23:35:41.807Z,2.20
2023-05-21T23:38:10.378Z,3.30
2023-05-21T23:40:38.904Z,2.28
2023-05-21T23:43:07.660Z,2.63
2023-05-21T23:45:35.958Z,2.85
2023-05-21T23:48:04.789Z,2.67
2023-05-21T23:50:33.072Z,2.92
2023-05-21T23:53:03.018Z,2.78
2023-05-21T23:55:31.336Z,2.83
2023-05-21T23:57:59.842Z,2.63
